createdAt,value
2019-03-18T00:00:38.609Z,77.43
2019-03-18T00:06:43.178Z,77.63
2019-03-18T00:12:47.746Z,78.39
2019-03-18T00:18:52.384Z,78.60
2019-03-18T00:24:57.004Z,77.42
2019-03-18T00:31:01.591Z,78.01
2019-03-18T00:37:06.297Z,77.70
2019-03-18T00:43:10.842Z,77.94
2019-03-18T00:49:15.379Z,77.81
2019-03-18T00:55:20.003Z,77.57
2019-03-18T01:01:24.549Z,77.89
2019-03-18T01:07:29.253Z,78.24
2019-03-18T01:13:34.751Z,78.42
2019-03-18T01:19:39.327Z,78.30
2019-03-18T01:25:43.877Z,78.63
2019-03-18T01:31:48.420Z,78.63
2019-03-18T01:37:53.067Z,78.91
2019-03-18T01:43:57.633Z,79.01
2019-03-18T01:50:02.182Z,78.97
2019-03-18T01:56:06.749Z,79.50
2019-03-18T02:02:11.295Z,79.57
2019-03-18T02:08:15.843Z,79.23
2019-03-18T02:14:20.392Z,79.31
2019-03-18T02:20:24.958Z,78.80
2019-03-18T02:26:29.520Z,78.52
2019-03-18T02:32:34.184Z,78.35
2019-03-18T02:38:38.723Z,78.90
2019-03-18T02:44:43.272Z,79.36
2019-03-18T02:50:47.816Z,78.12
2019-03-18T02:56:52.372Z,77.65
2019-03-18T03:02:56.941Z,78.20
2019-03-18T03:09:01.485Z,78.69
2019-03-18T03:15:12.265Z,79.12
2019-03-18T03:21:16.796Z,79.06
2019-03-18T03:27:21.352Z,79.26
2019-03-18T03:33:25.922Z,79.30
2019-03-18T03:39:30.514Z,79.34
2019-03-18T03:45:35.112Z,79.22
2019-03-18T03:51:39.698Z,78.57
2019-03-18T03:57:44.327Z,78.83
2019-03-18T04:03:48.947Z,78.73
2019-03-18T04:09:53.573Z,77.51
2019-03-18T04:15:58.123Z,77.24
2019-03-18T04:22:03.592Z,76.75
2019-03-18T04:28:08.304Z,76.93
2019-03-18T04:34:12.835Z,77.22
2019-03-18T04:40:17.468Z,76.36
2019-03-18T04:46:22.009Z,76.35
2019-03-18T04:52:26.622Z,75.28
2019-03-18T04:58:31.226Z,75.48
2019-03-18T05:04:35.783Z,76.23
2019-03-18T05:10:40.345Z,78.42
2019-03-18T05:16:44.904Z,80.83
2019-03-18T05:22:49.484Z,83.13
2019-03-18T05:28:54.088Z,84.65
2019-03-18T05:34:58.652Z,86.35
2019-03-18T05:41:03.259Z,87.17
2019-03-18T05:47:07.800Z,87.90
2019-03-18T05:53:12.356Z,87.18
2019-03-18T05:59:16.978Z,87.30
2019-03-18T06:05:21.531Z,87.10
2019-03-18T06:11:26.174Z,87.77
2019-03-18T06:17:30.834Z,88.66
2019-03-18T06:23:35.487Z,89.24
2019-03-18T06:29:40.013Z,89.20
2019-03-18T06:35:44.654Z,88.65
2019-03-18T06:41:49.224Z,87.58
2019-03-18T06:48:04.063Z,87.78
2019-03-18T06:54:00.121Z,86.86
2019-03-18T07:00:08.125Z,87.02
2019-03-18T07:06:12.649Z,86.08
2019-03-18T07:12:17.287Z,85.94
2019-03-18T07:18:21.895Z,86.05
2019-03-18T07:24:26.447Z,86.66
2019-03-18T07:30:31.062Z,86.49
2019-03-18T07:36:35.724Z,86.79
2019-03-18T07:42:40.365Z,85.56
2019-03-18T07:48:44.911Z,83.68
2019-03-18T07:54:49.469Z,84.07
2019-03-18T08:00:54.064Z,82.48
2019-03-18T08:06:58.626Z,81.17
2019-03-18T08:13:03.249Z,80.83
2019-03-18T08:19:07.809Z,79.37
2019-03-18T08:25:12.507Z,77.61
2019-03-18T08:31:17.154Z,79.15
2019-03-18T08:37:21.780Z,79.94
2019-03-18T08:43:26.334Z,79.45
2019-03-18T08:49:30.924Z,79.92
2019-03-18T08:55:35.532Z,80.93
2019-03-18T09:01:40.157Z,85.56
2019-03-18T09:07:44.720Z,87.70
2019-03-18T09:13:49.286Z,85.57
2019-03-18T09:19:53.842Z,84.57
2019-03-18T09:25:58.381Z,79.31
2019-03-18T09:32:03.128Z,74.44
2019-03-18T09:38:08.170Z,71.47
2019-03-18T09:44:12.720Z,72.04
2019-03-18T09:50:17.602Z,72.54
2019-03-18T09:56:22.171Z,71.43
2019-03-18T10:02:26.778Z,71.85
2019-03-18T10:08:31.471Z,70.03
2019-03-18T10:14:36.030Z,68.52
2019-03-18T10:20:40.650Z,67.13
2019-03-18T10:26:45.212Z,68.54
2019-03-18T10:32:49.782Z,68.81
2019-03-18T10:38:54.340Z,65.36
2019-03-18T10:44:58.960Z,66.64
2019-03-18T10:51:03.515Z,64.24
2019-03-18T10:57:08.083Z,65.08
2019-03-18T11:03:12.775Z,65.05
2019-03-18T11:09:17.480Z,62.61
2019-03-18T11:15:23.339Z,60.27
2019-03-18T11:21:27.885Z,56.91
2019-03-18T11:27:32.795Z,57.12
2019-03-18T11:33:37.422Z,58.13
2019-03-18T11:39:42.004Z,59.08
2019-03-18T11:45:46.605Z,63.10
2019-03-18T11:51:51.169Z,67.25
2019-03-18T11:57:55.788Z,67.67
2019-03-18T12:04:00.366Z,64.64
2019-03-18T12:10:11.810Z,59.49
2019-03-18T12:16:16.430Z,55.02
2019-03-18T12:22:20.992Z,59.16
2019-03-18T12:28:25.545Z,61.62
2019-03-18T12:34:30.101Z,58.61
2019-03-18T12:40:34.650Z,56.58
2019-03-18T12:46:39.237Z,52.87
2019-03-18T12:52:44.137Z,46.16
2019-03-18T12:58:48.855Z,44.68
2019-03-18T13:04:53.420Z,49.33
2019-03-18T13:10:57.973Z,50.45
2019-03-18T13:17:02.543Z,52.14
2019-03-18T13:23:07.107Z,53.75
2019-03-18T13:29:11.730Z,56.26
2019-03-18T13:35:16.524Z,58.46
2019-03-18T13:41:21.079Z,57.97
2019-03-18T13:47:25.834Z,53.70
2019-03-18T13:53:30.387Z,52.80
2019-03-18T13:59:35.095Z,56.40
2019-03-18T14:05:39.663Z,59.41
2019-03-18T14:11:44.209Z,60.15
2019-03-18T14:17:48.782Z,60.44
2019-03-18T14:23:53.477Z,60.98
2019-03-18T14:29:58.039Z,59.82
2019-03-18T14:36:02.621Z,60.03
2019-03-18T14:42:07.174Z,60.72
2019-03-18T14:48:11.856Z,61.63
2019-03-18T14:54:16.415Z,55.69
2019-03-18T15:00:24.470Z,53.66
2019-03-18T15:06:29.034Z,55.99
2019-03-18T15:12:34.530Z,54.76
2019-03-18T15:18:39.077Z,55.48
2019-03-18T15:24:43.619Z,57.99
2019-03-18T15:30:48.202Z,58.48
2019-03-18T15:36:52.771Z,60.69
2019-03-18T15:42:57.526Z,54.86
2019-03-18T15:49:02.089Z,52.83
2019-03-18T15:55:07.841Z,55.49
2019-03-18T16:01:12.412Z,51.60
2019-03-18T16:07:17.046Z,52.71
2019-03-18T16:13:21.684Z,52.81
2019-03-18T16:19:26.242Z,52.99
2019-03-18T16:25:30.926Z,53.56
2019-03-18T16:31:35.489Z,53.83
2019-03-18T16:37:40.048Z,53.29
2019-03-18T16:43:44.609Z,52.38
2019-03-18T16:49:49.176Z,50.96
2019-03-18T16:55:53.730Z,50.47
2019-03-18T17:01:58.294Z,52.01
2019-03-18T17:08:02.926Z,53.71
2019-03-18T17:14:07.510Z,56.50
2019-03-18T17:20:19.020Z,59.19
2019-03-18T17:26:23.586Z,59.43
2019-03-18T17:32:28.132Z,62.53
2019-03-18T17:38:32.728Z,65.04
2019-03-18T17:44:37.282Z,67.37
2019-03-18T17:50:41.854Z,70.49
2019-03-18T17:56:46.429Z,72.41
2019-03-18T18:02:52.686Z,74.08
2019-03-18T18:08:57.405Z,74.23
2019-03-18T18:15:02.027Z,74.49
2019-03-18T18:21:06.578Z,75.21
2019-03-18T18:27:11.201Z,74.98
2019-03-18T18:33:15.835Z,75.08
2019-03-18T18:39:20.385Z,74.90
2019-03-18T18:45:25.004Z,74.29
2019-03-18T18:51:29.631Z,74.41
2019-03-18T18:57:34.322Z,73.48
2019-03-18T19:03:38.900Z,74.36
2019-03-18T19:09:43.451Z,74.85
2019-03-18T19:15:48.028Z,74.98
2019-03-18T19:21:52.639Z,74.83
2019-03-18T19:27:57.203Z,74.49
2019-03-18T19:34:01.784Z,74.58
2019-03-18T19:40:11.242Z,74.36
2019-03-18T19:46:15.834Z,74.25
2019-03-18T19:52:20.401Z,74.68
2019-03-18T19:58:24.936Z,72.31
2019-03-18T20:04:29.586Z,72.24
2019-03-18T20:10:34.158Z,72.30
2019-03-18T20:16:38.724Z,72.49
2019-03-18T20:22:43.447Z,71.89
2019-03-18T20:28:48.011Z,72.62
2019-03-18T20:34:52.571Z,74.29
2019-03-18T20:40:57.129Z,75.75
2019-03-18T20:47:01.696Z,76.77
2019-03-18T20:53:06.521Z,76.37
2019-03-18T20:59:11.190Z,73.52
2019-03-18T21:05:15.742Z,72.31
2019-03-18T21:11:20.376Z,71.40
2019-03-18T21:17:24.950Z,70.74
2019-03-18T21:23:29.511Z,70.31
2019-03-18T21:29:34.080Z,70.36
2019-03-18T21:35:38.719Z,70.66
2019-03-18T21:41:43.282Z,71.11
2019-03-18T21:47:47.977Z,71.02
2019-03-18T21:53:52.531Z,71.80
2019-03-18T21:59:57.618Z,71.59
2019-03-18T22:06:02.332Z,71.10
2019-03-18T22:12:07.072Z,71.97
2019-03-18T22:18:11.679Z,72.67
2019-03-18T22:24:16.244Z,73.75
2019-03-18T22:30:21.028Z,73.62
2019-03-18T22:36:25.573Z,75.68
2019-03-18T22:42:30.215Z,75.22
2019-03-18T22:48:34.767Z,75.86
2019-03-18T22:54:39.438Z,76.69
2019-03-18T23:00:45.718Z,76.69
2019-03-18T23:06:50.304Z,76.43
2019-03-18T23:12:54.877Z,76.89
2019-03-18T23:18:59.521Z,77.61
2019-03-18T23:25:07.535Z,77.90
2019-03-18T23:31:12.139Z,78.31
2019-03-18T23:37:16.707Z,78.32
2019-03-18T23:43:21.275Z,78.58
2019-03-18T23:49:25.829Z,79.49
2019-03-18T23:55:30.459Z,79.00
